OMFJ/FJR METAR and TAF weather

Enter ICAO airport designator
Station Type Date Time Source
OMFJ METAR 2019/08/19 01:00 UTC NOAA

OMFJ 190100Z 11004KT 6000 BKN020 31/26 Q1003 A2964


Station Type Date Time Source
OMFJ Decoded METAR 2019/08/19 01:00 UTC NOAA

Station name not available
Aug 18, 2019 - 09:00 PM EDT / 2019.08.19 0100 UTC
Wind: from the ESE (110 degrees) at 5 MPH (4 KT):0
Visibility: 3 mile(s):0
Sky conditions: mostly cloudy
Temperature: 87 F (31 C)
Heat index: 99.7 F (37.6 C):1
Dew Point: 78 F (26 C)
Relative Humidity: 74%
Pressure (altimeter): 29.64 in. Hg (1003 hPa)
ob: OMFJ 190100Z 11004KT 6000 BKN020 31/26 Q1003 A2964
cycle: 1

Station Type Date Time Source
OMFJ TAF 2019/08/18 18:03 UTC NOAA

TAF TAF OMFJ 181700Z 1818/1924 VRB03KT 6000 NSC
TEMPO 1823/1905 5000 HZ SCT016
BECMG 1904/1906 10010KT
BECMG 1914/1916 16005KT
BECMG 1918/1920 VRB03KT

Example: see airport list